Panama City Beach, Florida
Current Conditions -  °F | °C
As of 4:53 PM on Tuesday 25 Nov 2014 (Local Time) from KECP Reporting Station
Overcast Overcast  
Wind Chill: 50°   Ceiling: 8000
Heat Index: 50°   Visibility: 10mi
Dew Point: 47°   Wind: 12mph
Humidity: 89%   Direction: 340°NNW
Pressure: 30.03"   Gusts: NA
Location:  30.21°N, 85.85°W
Report Text: KECP 252253Z 34010KT 10SM FEW008 SCT055 OVC080 10/08 A3003 RMK AO2 RAE04 SLP179 T01000083 PNO $
Loading
Personal Weather Stations






























Interactive Weather Map New forecast layout! Learn more

10-Day Weather Forecast

Advertisements
Track Severe Weather on mobile